Time;durP1;ratioP1;P1;durP2;ratioP2;P2;SDS_P1;SDS_P2;PMS_P1;PMS_P2;Temp;Humidity;BMP_temperature;BMP_pressure;BME280_temperature;BME280_humidity;BME280_pressure;Samples;Min_cycle;Max_cycle;Signal;HPM_P1;HPM_P2
2022/03/06 00:01:13;;;;;;;14.63;5.45;;;8.20;65.20;;;;;;5018083;28;20030;-64
2022/03/06 00:03:39;;;;;;;14.07;6.47;;;8.20;65.40;;;;;;5032508;28;20017;-65
2022/03/06 00:06:05;;;;;;;19.40;6.43;;;8.20;65.30;;;;;;5032227;28;20064;-65
2022/03/06 00:08:31;;;;;;;22.15;7.53;;;8.20;65.60;;;;;;5014157;28;20026;-65
2022/03/06 00:10:57;;;;;;;18.67;6.78;;;8.10;65.50;;;;;;5013755;28;20037;-65
2022/03/06 00:13:23;;;;;;;13.63;5.53;;;8.10;65.60;;;;;;5028843;28;20220;-65
2022/03/06 00:15:49;;;;;;;16.08;6.03;;;8.20;65.50;;;;;;5022772;28;20028;-65
2022/03/06 00:18:15;;;;;;;19.60;6.35;;;8.20;65.50;;;;;;5013903;28;20026;-65
2022/03/06 00:20:42;;;;;;;21.85;6.72;;;8.20;65.60;;;;;;5031108;28;20017;-65
2022/03/06 00:23:08;;;;;;;19.85;6.75;;;8.10;66.40;;;;;;5022436;28;20116;-65
2022/03/06 00:25:34;;;;;;;15.00;6.55;;;8.20;65.60;;;;;;5014260;28;20124;-65
2022/03/06 00:28:00;;;;;;;17.80;7.35;;;8.20;65.80;;;;;;5028515;28;20060;-65
2022/03/06 00:30:26;;;;;;;20.80;7.13;;;8.20;65.80;;;;;;5014865;28;20700;-65
2022/03/06 00:32:52;;;;;;;20.05;7.03;;;8.20;65.60;;;;;;5010001;28;20028;-65
2022/03/06 00:35:17;;;;;;;25.58;6.88;;;8.20;65.60;;;;;;5028150;28;20388;-65
2022/03/06 00:37:43;;;;;;;20.65;8.02;;;8.10;65.50;;;;;;5019530;28;20057;-65
2022/03/06 00:40:09;;;;;;;22.23;8.55;;;8.10;65.60;;;;;;5022525;28;20038;-65
2022/03/06 00:42:35;;;;;;;23.15;7.65;;;8.20;65.50;;;;;;5027276;28;20029;-65
2022/03/06 00:45:01;;;;;;;15.90;6.82;;;8.10;65.60;;;;;;5021678;28;20402;-65
2022/03/06 00:47:27;;;;;;;19.23;6.93;;;8.10;65.80;;;;;;5027334;28;20034;-65
2022/03/06 00:49:52;;;;;;;21.58;8.35;;;8.20;65.60;;;;;;5012201;28;20613;-65
2022/03/06 00:52:18;;;;;;;14.38;6.97;;;8.20;65.60;;;;;;5023172;28;20024;-65
2022/03/06 00:54:44;;;;;;;17.88;7.90;;;8.10;66.70;;;;;;5035585;28;20542;-65
2022/03/06 00:57:09;;;;;;;18.42;7.07;;;8.10;66.00;;;;;;5037326;28;20359;-65
2022/03/06 00:59:35;;;;;;;14.32;6.55;;;8.10;65.70;;;;;;5005286;28;20030;-65
2022/03/06 01:02:03;;;;;;;20.55;7.50;;;8.10;65.80;;;;;;5028979;28;20064;-65
2022/03/06 01:04:29;;;;;;;16.80;6.60;;;8.10;65.90;;;;;;5027667;28;20030;-65
2022/03/06 01:06:55;;;;;;;20.08;8.07;;;8.10;65.80;;;;;;5011445;28;20039;-65
2022/03/06 01:09:20;;;;;;;17.90;7.45;;;8.20;65.70;;;;;;5030670;28;20025;-65
2022/03/06 01:11:46;;;;;;;18.95;6.88;;;8.20;65.50;;;;;;5028150;28;20026;-65
2022/03/06 01:14:12;;;;;;;20.20;7.57;;;8.20;65.50;;;;;;5017474;28;20030;-65
2022/03/06 01:16:37;;;;;;;17.40;7.15;;;8.20;65.90;;;;;;5013783;28;20394;-65
2022/03/06 01:19:03;;;;;;;20.50;7.82;;;8.10;66.00;;;;;;5025370;28;20116;-65
2022/03/06 01:21:29;;;;;;;15.70;6.78;;;8.10;66.00;;;;;;5026331;28;20030;-65
2022/03/06 01:23:55;;;;;;;22.27;7.70;;;8.10;66.00;;;;;;5024667;28;20036;-65
2022/03/06 01:26:20;;;;;;;13.50;6.32;;;8.10;65.90;;;;;;5022774;28;20042;-65
2022/03/06 01:28:46;;;;;;;19.83;6.43;;;8.10;66.00;;;;;;5024558;28;20048;-65
2022/03/06 01:31:12;;;;;;;16.50;6.63;;;8.10;66.40;;;;;;5021921;28;20037;-65
2022/03/06 01:33:37;;;;;;;15.88;6.90;;;8.10;66.30;;;;;;5008117;28;20029;-65
2022/03/06 01:36:04;;;;;;;21.80;7.32;;;8.10;66.20;;;;;;5012114;28;20478;-65
2022/03/06 01:38:30;;;;;;;18.77;7.18;;;8.10;66.30;;;;;;5021629;28;20034;-65
2022/03/06 01:40:56;;;;;;;18.70;7.28;;;8.10;66.30;;;;;;5028918;28;20029;-65
2022/03/06 01:43:21;;;;;;;18.58;7.68;;;8.00;66.40;;;;;;5011089;28;20387;-65
2022/03/06 01:45:47;;;;;;;19.20;6.63;;;8.10;66.40;;;;;;4994276;28;20306;-65
2022/03/06 01:48:13;;;;;;;21.92;6.82;;;8.10;66.10;;;;;;5013227;28;20029;-65
2022/03/06 01:50:39;;;;;;;17.85;7.57;;;8.10;66.00;;;;;;5026421;28;20386;-64
2022/03/06 01:53:08;;;;;;;23.60;7.85;;;8.10;66.00;;;;;;5011536;28;20029;-65
2022/03/06 01:55:34;;;;;;;19.67;8.07;;;8.10;66.20;;;;;;5034061;28;20021;-65
2022/03/06 01:58:04;;;;;;;19.70;8.27;;;8.00;66.50;;;;;;5018468;28;20056;-65
2022/03/06 02:00:33;;;;;;;20.48;7.63;;;8.00;66.40;;;;;;5004636;28;20064;-65
2022/03/06 02:02:59;;;;;;;17.70;7.60;;;8.10;66.40;;;;;;5016806;28;20120;-65
2022/03/06 02:05:25;;;;;;;15.32;6.95;;;8.00;66.50;;;;;;5011942;28;20112;-65
2022/03/06 02:07:51;;;;;;;16.67;7.53;;;8.10;66.40;;;;;;5019550;28;20495;-66
2022/03/06 02:10:17;;;;;;;18.13;7.03;;;8.00;66.50;;;;;;5031915;28;20036;-65
2022/03/06 02:12:44;;;;;;;18.45;7.15;;;8.00;66.60;;;;;;5014905;28;20537;-65
2022/03/06 02:15:13;;;;;;;17.63;7.60;;;8.00;66.80;;;;;;5021578;28;20025;-65
2022/03/06 02:17:39;;;;;;;22.25;7.13;;;8.00;66.90;;;;;;5011830;28;20029;-65
2022/03/06 02:20:09;;;;;;;19.65;7.28;;;8.00;66.80;;;;;;5011765;28;20478;-65
2022/03/06 02:22:40;;;;;;;17.65;7.07;;;8.10;66.90;;;;;;5009215;28;20494;-65
2022/03/06 02:25:18;;;;;;;20.80;6.57;;;8.10;66.50;;;;;;5036035;28;20029;-65
2022/03/06 02:27:45;;;;;;;22.52;8.63;;;8.10;66.40;;;;;;5003613;28;20120;-65
2022/03/06 02:30:19;;;;;;;18.25;6.72;;;8.10;66.30;;;;;;5011578;28;20026;-65
2022/03/06 02:32:47;;;;;;;20.52;7.75;;;8.10;66.20;;;;;;5011501;28;20487;-65
2022/03/06 02:35:13;;;;;;;20.90;6.82;;;8.10;66.10;;;;;;5016480;28;20048;-65
2022/03/06 02:37:39;;;;;;;18.55;8.05;;;8.10;65.80;;;;;;5024407;28;20494;-65
2022/03/06 02:46:02;;;;;;;15.15;6.70;;;8.10;66.40;;;;;;557084;26;20318;-66
2022/03/06 02:48:28;;;;;;;16.60;6.57;;;8.10;66.70;;;;;;5040790;28;20393;-65
2022/03/06 02:51:31;;;;;;;23.88;7.07;;;8.00;66.80;;;;;;5054699;28;20028;-65
2022/03/06 02:53:56;;;;;;;19.65;7.28;;;8.00;66.90;;;;;;5058299;28;20027;-66
2022/03/06 02:56:22;;;;;;;18.58;6.45;;;8.00;67.00;;;;;;5057394;28;20390;-66
2022/03/06 02:58:48;;;;;;;16.50;6.68;;;8.00;67.00;;;;;;5056101;28;20028;-66
2022/03/06 03:01:13;;;;;;;16.30;6.10;;;8.00;67.00;;;;;;5042499;28;20435;-65
2022/03/06 03:03:39;;;;;;;16.70;7.45;;;8.00;67.10;;;;;;5039042;28;20029;-65
2022/03/06 03:06:08;;;;;;;14.85;6.60;;;8.00;67.20;;;;;;5065020;28;20021;-65
2022/03/06 03:08:34;;;;;;;19.50;8.10;;;8.00;67.20;;;;;;5053319;28;20017;-65
2022/03/06 03:10:59;;;;;;;16.80;7.22;;;8.00;67.30;;;;;;5055906;28;20036;-65
2022/03/06 03:13:25;;;;;;;21.35;6.57;;;8.00;67.20;;;;;;5049873;28;20021;-65
2022/03/06 03:15:51;;;;;;;14.73;6.13;;;8.00;67.40;;;;;;5059749;28;20032;-64
2022/03/06 03:18:16;;;;;;;16.40;7.10;;;8.10;67.30;;;;;;5038697;28;20474;-65
2022/03/06 03:20:42;;;;;;;19.15;6.97;;;8.00;67.40;;;;;;5061348;28;20028;-65
2022/03/06 03:23:08;;;;;;;22.08;7.50;;;8.00;67.40;;;;;;5037526;28;20033;-65
2022/03/06 03:25:33;;;;;;;17.55;6.60;;;8.00;67.50;;;;;;5045765;28;20028;-65
2022/03/06 03:27:59;;;;;;;16.67;7.70;;;8.10;67.20;;;;;;5050034;28;20132;-65
2022/03/06 03:30:25;;;;;;;17.95;6.70;;;8.00;67.40;;;;;;5051335;28;20525;-65
2022/03/06 03:32:50;;;;;;;17.77;5.75;;;8.00;67.60;;;;;;5062934;28;20040;-65
2022/03/06 03:35:16;;;;;;;18.77;6.95;;;8.00;67.70;;;;;;5060419;28;20375;-65
2022/03/06 03:37:42;;;;;;;17.50;7.38;;;8.00;67.60;;;;;;5064533;28;20032;-65
2022/03/06 03:40:08;;;;;;;18.88;6.60;;;8.10;67.70;;;;;;5053338;28;20025;-65
2022/03/06 03:42:35;;;;;;;14.98;6.63;;;8.00;67.50;;;;;;5039587;28;20024;-65
2022/03/06 03:45:01;;;;;;;17.42;7.72;;;8.00;67.60;;;;;;5040535;28;20028;-66
2022/03/06 03:47:27;;;;;;;15.07;6.32;;;8.00;67.80;;;;;;5059370;28;20087;-65
2022/03/06 03:49:52;;;;;;;17.92;6.75;;;8.00;67.80;;;;;;5060576;28;20489;-65
2022/03/06 03:52:18;;;;;;;14.93;5.65;;;8.00;67.70;;;;;;5061565;28;20112;-66
2022/03/06 03:54:44;;;;;;;17.35;6.28;;;8.00;67.60;;;;;;5060037;28;20021;-65
2022/03/06 03:57:10;;;;;;;16.05;6.68;;;8.00;67.80;;;;;;5062629;28;20029;-65
2022/03/06 03:59:43;;;;;;;16.80;6.25;;;8.00;67.70;;;;;;5064876;28;20040;-66
2022/03/06 04:02:09;;;;;;;20.83;6.88;;;8.00;67.60;;;;;;5061157;28;20051;-65
2022/03/06 04:04:35;;;;;;;15.50;6.93;;;8.00;67.60;;;;;;5064870;28;20052;-65
2022/03/06 04:07:01;;;;;;;18.90;7.05;;;8.00;67.60;;;;;;5057941;28;20426;-65
2022/03/06 04:09:26;;;;;;;14.02;5.57;;;8.00;67.90;;;;;;5046109;28;20020;-65
2022/03/06 04:11:52;;;;;;;19.33;7.38;;;8.00;67.70;;;;;;5061039;28;20138;-66
2022/03/06 04:14:18;;;;;;;14.68;6.90;;;8.00;67.80;;;;;;5048523;28;20030;-65
2022/03/06 04:16:43;;;;;;;19.25;6.05;;;8.00;67.70;;;;;;5035668;28;20552;-65
2022/03/06 04:19:10;;;;;;;18.23;6.40;;;8.00;67.80;;;;;;5054781;28;20119;-66
2022/03/06 04:21:36;;;;;;;15.82;7.05;;;8.00;67.60;;;;;;5037443;28;20029;-65
2022/03/06 04:24:02;;;;;;;19.00;7.13;;;8.00;67.50;;;;;;5045905;28;20044;-65
2022/03/06 04:26:28;;;;;;;15.80;7.03;;;8.00;67.50;;;;;;5042187;28;20036;-65
2022/03/06 04:35:42;;;;;;;18.30;6.55;;;7.90;67.70;;;;;;5067006;28;20097;-65
2022/03/06 04:41:36;;;;;;;14.02;6.85;;;8.00;67.30;;;;;;5074632;28;20058;-66
2022/03/06 04:44:01;;;;;;;16.58;6.03;;;8.00;67.20;;;;;;5061300;28;20036;-66
2022/03/06 04:46:27;;;;;;;19.77;7.20;;;8.00;67.30;;;;;;5035747;28;20036;-64
2022/03/06 04:48:53;;;;;;;15.60;6.38;;;8.00;67.60;;;;;;5035735;28;20342;-65
2022/03/06 04:51:18;;;;;;;13.07;6.43;;;8.00;67.70;;;;;;5041683;28;20025;-65
2022/03/06 04:53:44;;;;;;;13.93;6.50;;;8.00;67.80;;;;;;5063813;28;20028;-65
2022/03/06 04:56:10;;;;;;;18.13;6.45;;;7.90;67.90;;;;;;5057121;28;20090;-66
2022/03/06 04:58:36;;;;;;;16.95;6.40;;;7.90;67.80;;;;;;5058015;28;20528;-65
2022/03/06 05:01:02;;;;;;;25.35;6.55;;;8.00;67.80;;;;;;5064191;28;20020;-65
2022/03/06 05:03:29;;;;;;;18.17;7.53;;;8.00;67.80;;;;;;5063376;28;20029;-65
2022/03/06 05:05:55;;;;;;;17.70;5.75;;;8.00;68.00;;;;;;5054353;28;20029;-65
2022/03/06 05:08:21;;;;;;;14.35;6.10;;;7.90;68.10;;;;;;5064081;28;20355;-65
2022/03/06 05:10:47;;;;;;;13.10;5.50;;;8.00;68.70;;;;;;5040871;28;20498;-65
2022/03/06 05:13:12;;;;;;;17.48;6.60;;;7.90;68.10;;;;;;5033716;28;20127;-65
2022/03/06 05:15:38;;;;;;;19.98;6.85;;;7.90;68.20;;;;;;5066574;28;20027;-65
2022/03/06 05:18:04;;;;;;;16.10;5.78;;;7.90;68.10;;;;;;5055233;28;20034;-65
2022/03/06 05:20:30;;;;;;;14.18;6.30;;;7.90;68.10;;;;;;5060530;28;20024;-65
2022/03/06 05:33:14;;;;;;;13.15;6.07;;;8.00;68.40;;;;;;5058184;28;20028;-65
2022/03/06 05:35:40;;;;;;;18.77;6.32;;;7.90;68.10;;;;;;5060098;28;20375;-66
2022/03/06 05:38:05;;;;;;;16.88;6.47;;;8.00;68.20;;;;;;5037389;28;20040;-65
2022/03/06 05:40:31;;;;;;;16.85;6.82;;;7.90;68.20;;;;;;5061140;28;20033;-65
2022/03/06 05:42:57;;;;;;;17.83;7.20;;;7.90;68.40;;;;;;5053360;28;20027;-66
2022/03/06 05:45:23;;;;;;;20.13;6.63;;;7.90;68.30;;;;;;5058893;28;20020;-65
2022/03/06 05:47:49;;;;;;;16.95;6.88;;;7.90;68.40;;;;;;5043009;28;20154;-65
2022/03/06 05:50:15;;;;;;;17.38;6.28;;;7.90;68.40;;;;;;5021607;28;20045;-65
2022/03/06 05:52:41;;;;;;;14.82;6.35;;;8.00;68.30;;;;;;5051811;28;20021;-65
2022/03/06 05:55:07;;;;;;;15.48;6.38;;;8.00;68.20;;;;;;5051900;28;20311;-65
2022/03/06 05:57:33;;;;;;;11.32;6.50;;;7.90;68.40;;;;;;5057695;28;20444;-65
2022/03/06 05:59:58;;;;;;;17.77;7.15;;;8.00;68.40;;;;;;5052670;28;20485;-65
2022/03/06 06:02:24;;;;;;;16.35;6.53;;;8.00;68.50;;;;;;5069485;28;20048;-65
2022/03/06 06:04:50;;;;;;;13.40;6.15;;;8.00;68.50;;;;;;5045563;28;20022;-65
2022/03/06 06:07:16;;;;;;;15.20;6.10;;;8.00;68.80;;;;;;5039143;28;20037;-65
2022/03/06 06:09:42;;;;;;;15.52;6.03;;;8.00;68.40;;;;;;5049488;28;20112;-65
2022/03/06 06:12:08;;;;;;;13.75;6.07;;;8.00;68.60;;;;;;5051724;28;20025;-65
2022/03/06 06:14:34;;;;;;;16.85;7.03;;;8.00;68.50;;;;;;5046319;28;20029;-65
2022/03/06 06:17:00;;;;;;;12.57;5.65;;;8.00;68.50;;;;;;5055261;28;20180;-65
2022/03/06 06:19:25;;;;;;;13.98;6.32;;;8.00;68.80;;;;;;5059698;28;20070;-66
2022/03/06 06:21:52;;;;;;;14.60;6.57;;;8.00;68.60;;;;;;5059702;28;20079;-66
2022/03/06 06:24:17;;;;;;;15.15;6.43;;;8.00;68.60;;;;;;5064183;28;20025;-65
2022/03/06 06:26:47;;;;;;;18.45;6.80;;;8.00;69.40;;;;;;5057318;28;20036;-65
2022/03/06 06:29:14;;;;;;;16.92;7.35;;;8.00;68.60;;;;;;5055765;28;20036;-65
2022/03/06 06:31:40;;;;;;;17.40;7.38;;;8.00;68.60;;;;;;5035731;28;20028;-65
2022/03/06 06:34:05;;;;;;;14.18;6.50;;;8.00;68.60;;;;;;5061023;28;20085;-65
2022/03/06 06:36:31;;;;;;;19.60;7.07;;;8.00;68.60;;;;;;5056590;28;20518;-65
2022/03/06 06:38:57;;;;;;;19.65;7.25;;;8.00;68.50;;;;;;5048207;28;20108;-65
2022/03/06 06:41:22;;;;;;;15.50;7.07;;;8.00;68.50;;;;;;5051605;28;20029;-65
2022/03/06 06:43:48;;;;;;;15.15;5.90;;;8.00;68.70;;;;;;5047744;28;20033;-65
2022/03/06 06:46:14;;;;;;;22.40;9.32;;;8.00;68.60;;;;;;5047185;28;20021;-65
2022/03/06 06:48:39;;;;;;;23.08;6.72;;;8.10;68.50;;;;;;5051478;28;20025;-65
2022/03/06 06:51:07;;;;;;;18.70;7.50;;;8.10;68.50;;;;;;5045285;28;20028;-65
2022/03/06 06:53:34;;;;;;;17.35;6.05;;;8.10;68.40;;;;;;5048463;28;20009;-65
2022/03/06 06:55:59;;;;;;;16.55;7.07;;;8.20;68.70;;;;;;5048563;28;20032;-65
2022/03/06 06:58:25;;;;;;;15.63;6.93;;;8.20;68.30;;;;;;5047769;28;20033;-65
2022/03/06 07:00:51;;;;;;;21.15;7.65;;;8.20;68.30;;;;;;5052457;28;20043;-65
2022/03/06 07:03:16;;;;;;;20.08;8.25;;;8.20;68.00;;;;;;5050301;28;20032;-65
2022/03/06 07:05:44;;;;;;;13.07;6.53;;;8.20;68.00;;;;;;5050775;28;20040;-65
2022/03/06 07:08:11;;;;;;;13.35;6.35;;;8.20;68.10;;;;;;5051050;28;20037;-65
2022/03/06 07:10:36;;;;;;;14.90;7.55;;;8.30;67.60;;;;;;5049411;28;20029;-65
2022/03/06 07:13:02;;;;;;;16.98;7.47;;;8.30;67.80;;;;;;5031429;28;20512;-65
2022/03/06 07:15:32;;;;;;;17.85;6.75;;;8.30;67.70;;;;;;5049377;28;20064;-65
2022/03/06 07:17:58;;;;;;;18.90;7.43;;;8.30;67.80;;;;;;5047158;28;20040;-65
2022/03/06 07:20:25;;;;;;;20.55;8.30;;;8.40;67.60;;;;;;5050278;28;20021;-65
2022/03/06 07:22:50;;;;;;;23.13;8.27;;;8.40;67.60;;;;;;5048195;28;20108;-66
2022/03/06 07:25:16;;;;;;;15.30;6.45;;;8.40;67.70;;;;;;5042252;28;20032;-65
2022/03/06 07:27:42;;;;;;;17.92;8.43;;;8.40;67.40;;;;;;5044062;28;20033;-65
2022/03/06 07:30:08;;;;;;;14.38;6.10;;;8.40;67.20;;;;;;5047891;28;20045;-65
2022/03/06 07:32:41;;;;;;;20.65;6.82;;;8.50;67.30;;;;;;5050238;28;20148;-66
2022/03/06 07:35:07;;;;;;;20.45;7.30;;;8.60;67.00;;;;;;5050215;28;20025;-64
2022/03/06 07:37:33;;;;;;;13.25;6.30;;;8.70;66.80;;;;;;5050029;28;20110;-65
2022/03/06 07:39:58;;;;;;;13.55;6.18;;;8.70;66.50;;;;;;5049738;28;20501;-65
2022/03/06 07:42:24;;;;;;;18.15;7.78;;;8.80;66.30;;;;;;5026352;28;20441;-65
2022/03/06 07:44:50;;;;;;;21.88;7.85;;;8.80;66.20;;;;;;5049745;28;20481;-65
2022/03/06 07:47:15;;;;;;;20.38;6.68;;;8.80;66.10;;;;;;5049936;28;20122;-65
2022/03/06 07:49:41;;;;;;;20.67;9.10;;;8.90;66.40;;;;;;5047445;28;20112;-65
2022/03/06 07:52:07;;;;;;;20.70;7.68;;;8.90;66.10;;;;;;5048187;28;20075;-65
2022/03/06 07:54:33;;;;;;;14.45;7.43;;;8.90;66.10;;;;;;5048477;28;20456;-64
2022/03/06 07:56:58;;;;;;;25.67;10.00;;;8.90;66.20;;;;;;5048453;28;20022;-64
2022/03/06 07:59:25;;;;;;;23.00;8.07;;;8.90;66.10;;;;;;5049663;28;20043;-65
2022/03/06 08:01:52;;;;;;;17.63;8.07;;;8.90;65.70;;;;;;5047850;28;20036;-66
2022/03/06 08:04:18;;;;;;;19.90;8.07;;;9.00;66.30;;;;;;5048095;28;20525;-64
2022/03/06 08:06:44;;;;;;;15.32;7.97;;;9.00;66.10;;;;;;5049821;28;20116;-65
2022/03/06 08:09:09;;;;;;;19.63;8.02;;;9.00;65.90;;;;;;5049095;28;20064;-65
2022/03/06 08:11:35;;;;;;;19.10;8.10;;;9.10;65.90;;;;;;5047309;28;20035;-64
2022/03/06 08:14:00;;;;;;;22.05;7.88;;;9.00;65.80;;;;;;5048854;28;20021;-65
2022/03/06 08:16:26;;;;;;;19.63;8.23;;;9.10;65.70;;;;;;5048147;28;20026;-65
2022/03/06 08:18:52;;;;;;;18.00;6.75;;;9.10;66.20;;;;;;5048973;28;20033;-64
2022/03/06 08:21:17;;;;;;;20.60;8.05;;;9.10;66.60;;;;;;5047298;28;20021;-64
2022/03/06 08:23:43;;;;;;;23.58;8.93;;;9.10;66.30;;;;;;5050223;28;20104;-65
2022/03/06 08:26:08;;;;;;;19.88;8.40;;;9.10;66.50;;;;;;5048965;28;20029;-65
2022/03/06 08:28:34;;;;;;;19.17;8.20;;;9.10;66.30;;;;;;5049887;28;20021;-64
2022/03/06 08:31:00;;;;;;;18.75;8.05;;;9.20;66.40;;;;;;5046441;28;20037;-65
2022/03/06 08:33:25;;;;;;;20.48;8.18;;;9.10;66.50;;;;;;5048552;28;20021;-57
2022/03/06 08:35:52;;;;;;;26.58;8.85;;;8.50;59.80;;;;;;5049233;28;20025;-60
2022/03/06 08:38:18;;;;;;;19.60;8.30;;;7.80;60.00;;;;;;5047582;28;20052;-58
2022/03/06 08:40:44;;;;;;;26.00;11.48;;;7.40;59.30;;;;;;5049593;28;20063;-57
2022/03/06 08:43:10;;;;;;;23.27;10.68;;;7.30;58.90;;;;;;5048635;28;20039;-58
2022/03/06 08:45:37;;;;;;;25.02;12.10;;;7.00;58.70;;;;;;5048463;28;20033;-58
2022/03/06 08:48:03;;;;;;;27.55;12.10;;;7.00;59.10;;;;;;5048282;28;20045;-58
2022/03/06 08:50:29;;;;;;;18.20;8.02;;;6.80;58.60;;;;;;5049387;28;20021;-58
2022/03/06 08:52:54;;;;;;;22.77;10.68;;;6.70;59.00;;;;;;5049075;28;20024;-57
2022/03/06 08:55:20;;;;;;;22.95;11.48;;;6.70;58.70;;;;;;5049066;28;20629;-58
2022/03/06 08:57:46;;;;;;;15.32;8.07;;;6.60;59.10;;;;;;5048526;28;20098;-58
2022/03/06 09:03:33;;;;;;;19.60;9.45;;;6.60;58.70;;;;;;5064012;22;21051;-64
2022/03/06 09:05:59;;;;;;;24.20;9.00;;;6.50;58.90;;;;;;5027150;28;20037;-64
2022/03/06 09:08:24;;;;;;;24.08;10.48;;;6.40;59.10;;;;;;5028512;28;20620;-65
2022/03/06 09:10:50;;;;;;;23.88;10.15;;;6.60;59.40;;;;;;5029773;28;20025;-63
2022/03/06 09:13:15;;;;;;;24.85;9.45;;;6.60;59.00;;;;;;5027612;28;20049;-64
2022/03/06 09:15:41;;;;;;;18.60;8.40;;;6.20;57.60;;;;;;5026455;28;20367;-64
2022/03/06 09:18:07;;;;;;;17.48;7.45;;;6.10;59.00;;;;;;5027487;28;20482;-64
2022/03/06 09:20:32;;;;;;;20.63;7.53;;;6.40;59.60;;;;;;5028918;28;20494;-64
2022/03/06 09:22:58;;;;;;;24.10;10.27;;;6.50;58.00;;;;;;5026551;28;20040;-64
2022/03/06 09:25:24;;;;;;;24.00;9.43;;;6.50;58.30;;;;;;5028374;28;20036;-64
2022/03/06 09:27:50;;;;;;;16.73;8.07;;;6.50;58.00;;;;;;5029060;28;20044;-65
2022/03/06 09:30:15;;;;;;;22.42;8.93;;;6.50;57.60;;;;;;5030965;28;20043;-64
2022/03/06 09:32:41;;;;;;;19.38;7.72;;;6.60;57.60;;;;;;5024445;28;20604;-65
2022/03/06 09:35:08;;;;;;;32.83;10.82;;;6.50;56.90;;;;;;5026335;28;20096;-65
2022/03/06 09:37:34;;;;;;;11.68;6.05;;;6.60;57.50;;;;;;5010016;28;20160;-65
2022/03/06 09:40:01;;;;;;;16.77;7.85;;;6.60;56.80;;;;;;5028222;28;20530;-65
2022/03/06 09:42:26;;;;;;;19.42;7.70;;;6.70;57.10;;;;;;5027923;28;20390;-64
2022/03/06 09:44:52;;;;;;;20.55;9.98;;;6.70;55.80;;;;;;5025633;28;20033;-65
2022/03/06 09:47:18;;;;;;;25.40;9.90;;;6.50;55.60;;;;;;5025217;28;20120;-63
2022/03/06 09:49:46;;;;;;;22.42;9.43;;;6.50;55.60;;;;;;5027566;28;20104;-63
2022/03/06 09:52:12;;;;;;;18.60;8.73;;;6.40;55.70;;;;;;5025719;28;20099;-64
2022/03/06 09:54:38;;;;;;;14.98;6.85;;;6.40;56.10;;;;;;5026944;28;20018;-64
2022/03/06 09:57:04;;;;;;;18.88;8.85;;;6.50;56.40;;;;;;5026784;28;20048;-64
2022/03/06 09:59:31;;;;;;;22.45;7.90;;;6.70;55.60;;;;;;5027408;28;20065;-64
2022/03/06 10:02:06;;;;;;;15.82;6.25;;;6.70;55.10;;;;;;5025701;28;20029;-64
2022/03/06 10:04:34;;;;;;;16.85;6.90;;;6.80;55.10;;;;;;5028136;28;20025;-65
2022/03/06 10:07:10;;;;;;;17.00;6.50;;;6.80;54.80;;;;;;5027485;28;20041;-65
2022/03/06 10:09:49;;;;;;;18.98;7.75;;;6.70;54.80;;;;;;5027595;28;20029;-64
2022/03/06 10:12:21;;;;;;;17.27;7.47;;;6.80;54.20;;;;;;5026786;28;20020;-64
2022/03/06 10:14:52;;;;;;;19.67;7.63;;;6.80;54.20;;;;;;5030059;28;20021;-65
2022/03/06 10:17:23;;;;;;;18.90;8.85;;;7.00;54.30;;;;;;5026680;28;20037;-64
2022/03/06 10:19:52;;;;;;;21.30;9.30;;;7.10;53.70;;;;;;5028913;28;20490;-65
2022/03/06 10:22:19;;;;;;;16.25;8.07;;;6.90;52.80;;;;;;5024452;28;20112;-64
2022/03/06 10:24:57;;;;;;;17.63;8.98;;;6.90;53.90;;;;;;5025776;28;20021;-64
2022/03/06 10:27:44;;;;;;;21.02;8.10;;;7.10;53.70;;;;;;5020484;28;20025;-64
2022/03/06 10:30:28;;;;;;;17.00;5.93;;;6.90;52.50;;;;;;5026630;28;20116;-64
2022/03/06 10:32:59;;;;;;;14.27;5.90;;;6.60;53.00;;;;;;5028488;28;20044;-64
2022/03/06 10:35:46;;;;;;;18.15;8.23;;;6.60;53.90;;;;;;5008283;28;20582;-65
2022/03/06 10:38:29;;;;;;;20.67;8.68;;;6.90;52.80;;;;;;5009174;28;20455;-63
2022/03/06 10:40:57;;;;;;;14.45;6.13;;;6.90;52.70;;;;;;5026350;28;20030;-63
2022/03/06 10:43:28;;;;;;;20.08;8.90;;;6.80;52.40;;;;;;5026940;28;20056;-63
2022/03/06 10:46:16;;;;;;;14.95;6.05;;;6.90;52.70;;;;;;5025891;28;20045;-64
2022/03/06 10:48:53;;;;;;;10.50;5.47;;;7.10;51.70;;;;;;5027763;28;20087;-63
2022/03/06 10:51:19;;;;;;;14.10;7.57;;;7.10;52.30;;;;;;5026194;28;20025;-64
2022/03/06 10:53:54;;;;;;;17.30;7.07;;;7.10;51.00;;;;;;5027629;28;20033;-63
2022/03/06 10:56:20;;;;;;;15.15;6.32;;;7.10;50.90;;;;;;5025421;28;20033;-63
2022/03/06 10:58:47;;;;;;;13.90;6.03;;;7.10;51.40;;;;;;5027113;28;20021;-64
2022/03/06 11:01:13;;;;;;;14.20;5.78;;;7.00;51.30;;;;;;5023850;28;20029;-64
2022/03/06 11:03:40;;;;;;;20.15;6.82;;;7.20;51.30;;;;;;5026986;28;20029;-63
2022/03/06 11:06:08;;;;;;;8.80;4.63;;;7.50;51.80;;;;;;5024691;28;20035;-63
2022/03/06 11:08:35;;;;;;;13.93;6.82;;;7.70;50.70;;;;;;5025524;28;20063;-63
2022/03/06 11:11:04;;;;;;;13.55;6.15;;;7.80;49.90;;;;;;5005528;28;20429;-63
2022/03/06 11:13:30;;;;;;;15.13;7.85;;;7.70;49.80;;;;;;5025595;28;20024;-63
2022/03/06 11:15:58;;;;;;;16.17;5.25;;;7.70;50.10;;;;;;5024029;28;20069;-64
2022/03/06 11:18:25;;;;;;;14.13;5.97;;;7.60;49.70;;;;;;5021524;28;20045;-64
2022/03/06 11:20:53;;;;;;;12.20;6.07;;;7.80;49.60;;;;;;5023320;28;20029;-63
2022/03/06 11:23:40;;;;;;;14.30;7.75;;;7.70;48.60;;;;;;5024677;28;20503;-64
2022/03/06 11:26:16;;;;;;;19.80;8.32;;;7.70;48.60;;;;;;5027450;28;20022;-63
2022/03/06 11:29:10;;;;;;;17.70;6.95;;;7.90;48.30;;;;;;5026672;28;20037;-63
2022/03/06 11:31:52;;;;;;;10.05;4.32;;;8.00;47.40;;;;;;5024501;28;20343;-63
2022/03/06 11:34:24;;;;;;;14.60;7.07;;;7.90;47.50;;;;;;5025306;28;20026;-63
2022/03/06 11:36:51;;;;;;;14.05;6.40;;;8.20;47.90;;;;;;5026601;28;20061;-63
2022/03/06 11:39:29;;;;;;;16.88;8.18;;;8.10;47.10;;;;;;5026154;28;20482;-63
2022/03/06 11:41:59;;;;;;;21.83;7.47;;;8.00;47.10;;;;;;5023196;28;20304;-63
2022/03/06 11:44:36;;;;;;;14.73;6.47;;;7.90;46.60;;;;;;5024748;28;20021;-64
2022/03/06 11:47:18;;;;;;;16.80;7.50;;;8.10;48.10;;;;;;5024117;28;20140;-64
2022/03/06 11:49:59;;;;;;;12.43;5.35;;;8.20;47.50;;;;;;5030063;28;20474;-63
2022/03/06 11:52:32;;;;;;;19.10;7.68;;;8.40;48.20;;;;;;5028554;28;20029;-63
2022/03/06 11:54:59;;;;;;;17.35;6.78;;;8.60;46.80;;;;;;5032439;28;20032;-63
2022/03/06 11:57:42;;;;;;;12.57;6.13;;;8.40;46.40;;;;;;5028425;28;20406;-63
2022/03/06 12:00:23;;;;;;;16.75;6.72;;;8.20;46.90;;;;;;5008154;28;20112;-64
2022/03/06 12:02:51;;;;;;;19.80;8.77;;;7.90;46.10;;;;;;5029175;28;20032;-63
2022/03/06 12:05:19;;;;;;;14.52;6.65;;;8.00;46.60;;;;;;5030634;28;20040;-63
2022/03/06 12:07:49;;;;;;;15.57;6.60;;;8.00;46.30;;;;;;5029839;28;20494;-63
2022/03/06 12:10:17;;;;;;;15.52;6.93;;;8.00;46.60;;;;;;5029705;28;20086;-63
2022/03/06 12:12:55;;;;;;;18.88;7.13;;;7.90;46.70;;;;;;5028275;28;20014;-63
2022/03/06 12:15:28;;;;;;;17.23;6.30;;;7.70;46.60;;;;;;5029502;28;20160;-62
2022/03/06 12:18:05;;;;;;;19.25;6.82;;;7.50;46.80;;;;;;5028592;28;20025;-63
2022/03/06 12:20:42;;;;;;;16.25;5.80;;;7.60;46.90;;;;;;5026217;28;20065;-63
2022/03/06 12:30:17;;;;;;;20.88;7.30;;;7.20;47.40;;;;;;4938514;28;20445;-62
2022/03/06 12:32:43;;;;;;;14.43;7.45;;;7.20;47.80;;;;;;4922930;29;20058;-63
2022/03/06 12:35:14;;;;;;;16.38;7.20;;;7.10;47.90;;;;;;4930314;29;20509;-62
2022/03/06 12:37:40;;;;;;;14.82;6.70;;;7.00;48.30;;;;;;4923081;29;20819;-62
2022/03/06 12:40:11;;;;;;;16.45;6.78;;;7.10;48.90;;;;;;4923491;29;20043;-62
2022/03/06 12:42:38;;;;;;;19.25;6.35;;;7.30;48.40;;;;;;4921331;29;20123;-62
2022/03/06 12:45:08;;;;;;;15.18;6.30;;;7.40;48.50;;;;;;4929789;29;20036;-63
2022/03/06 12:47:39;;;;;;;15.25;6.13;;;7.60;48.20;;;;;;4924141;29;20044;-62
2022/03/06 12:50:07;;;;;;;15.30;6.97;;;7.80;47.40;;;;;;4922121;29;20138;-62
2022/03/06 12:52:33;;;;;;;13.00;6.47;;;7.80;47.40;;;;;;4921596;29;20055;-62
2022/03/06 12:55:03;;;;;;;16.77;7.70;;;7.60;47.50;;;;;;4921127;29;20028;-62
2022/03/06 12:57:31;;;;;;;10.85;6.15;;;7.30;47.70;;;;;;4920863;29;20036;-62
2022/03/06 12:59:57;;;;;;;11.25;5.20;;;6.90;47.90;;;;;;4925906;29;20036;-62
2022/03/06 13:02:23;;;;;;;15.45;7.00;;;7.20;48.50;;;;;;4950512;28;20045;-63
2022/03/06 13:04:51;;;;;;;13.65;6.50;;;7.50;48.40;;;;;;5012605;28;20502;-63
2022/03/06 13:07:23;;;;;;;17.67;6.43;;;7.70;48.00;;;;;;5029791;28;20486;-62
2022/03/06 13:09:55;;;;;;;15.82;6.35;;;7.80;47.60;;;;;;5029315;28;20032;-62
2022/03/06 13:12:22;;;;;;;13.07;6.50;;;7.80;47.40;;;;;;5028018;28;20029;-63
2022/03/06 13:14:48;;;;;;;16.77;6.78;;;7.80;46.70;;;;;;5028470;28;20045;-63
2022/03/06 13:17:18;;;;;;;15.80;7.55;;;7.80;47.30;;;;;;5027689;28;20551;-63
2022/03/06 13:19:45;;;;;;;25.30;7.88;;;7.90;47.00;;;;;;5028434;28;20025;-63
2022/03/06 13:22:20;;;;;;;11.43;4.53;;;7.80;46.60;;;;;;5028516;28;20079;-63
2022/03/06 13:24:49;;;;;;;13.32;6.93;;;7.90;47.20;;;;;;5028278;28;20027;-63